Current | Radar | Forecast | Satellite
Updated: 1:15 PM PDT on March 30, 2017
Observed at Bremerton, Washington
Temperature 10°C
Humidity 76%
Dew Point 6°C
Wind NNE at 7 km/h
Pressure 1024 hPa (Rising)
Conditions Overcast
Visibility 16.1 kilometers
UV 2 out of 16
Clouds Mostly Cloudy (BKN) : 1005 m
Overcast (OVC) : 1249 m
Yesterday's Maximum 12°C
Yesterday's Minimum 4°C approx.
Yesterday's Heating Degree Days 19 approx.
Sunrise6:52 AM PDT
Sunset7:38 PM PDT
Moon Rise8:41 AM PDT
Moon Set11:06 PM PDT
Moon PhaseMoon Phase
Waxing Crescent
Raw METARMETAR KPWT 302015Z AUTO 02004KT 10SM BKN033 OVC041 10/06 A3025 RMK AO1

Bremerton, WA

Current Radar

Radar Map
Zoom into radar image
Zoom into animated radar image


Click here for Marine Information
Scientific forecaster discussion (NWS)

Units: English | Metric

Find the Weather for any City, State or Zipcode, or Country:

U.S. State List | Severe Weather | Tropical Storms | Ski Conditions
United States | Canada | Central America | South America | Asia | Europe | Australia | Africa | Islands

Weather Underground

© Copyright 2017
The Weather Company, LLC